sensor_id;sensor_type;location;lat;lon;timestamp;temperature;humidity
31575;DHT22;18182;1.328;103.810;2022-08-18T00:02:27;29.80;99.90
31575;DHT22;18182;1.328;103.810;2022-08-18T00:04:54;29.90;99.90
31575;DHT22;18182;1.328;103.810;2022-08-18T00:07:24;30.00;99.90
31575;DHT22;18182;1.328;103.810;2022-08-18T00:09:51;30.00;99.90
31575;DHT22;18182;1.328;103.810;2022-08-18T00:12:19;30.10;99.90
31575;DHT22;18182;1.328;103.810;2022-08-18T00:14:46;30.20;99.90
31575;DHT22;18182;1.328;103.810;2022-08-18T00:17:12;30.30;99.90
31575;DHT22;18182;1.328;103.810;2022-08-18T00:19:39;30.30;99.90
31575;DHT22;18182;1.328;103.810;2022-08-18T00:22:05;30.30;99.90
31575;DHT22;18182;1.328;103.810;2022-08-18T00:24:32;30.40;99.90
31575;DHT22;18182;1.328;103.810;2022-08-18T00:26:58;30.40;99.90
31575;DHT22;18182;1.328;103.810;2022-08-18T00:29:24;30.50;99.90
31575;DHT22;18182;1.328;103.810;2022-08-18T00:31:50;30.50;99.90
31575;DHT22;18182;1.328;103.810;2022-08-18T00:34:16;30.50;99.90
31575;DHT22;18182;1.328;103.810;2022-08-18T00:36:43;30.50;99.90
31575;DHT22;18182;1.328;103.810;2022-08-18T00:39:09;30.60;99.90
31575;DHT22;18182;1.328;103.810;2022-08-18T00:41:35;30.60;99.90
31575;DHT22;18182;1.328;103.810;2022-08-18T00:44:01;30.60;99.90
31575;DHT22;18182;1.328;103.810;2022-08-18T00:46:30;30.60;99.90
31575;DHT22;18182;1.328;103.810;2022-08-18T00:48:59;30.60;99.90
31575;DHT22;18182;1.328;103.810;2022-08-18T00:51:27;30.60;99.90
31575;DHT22;18182;1.328;103.810;2022-08-18T00:56:44;30.70;99.90
31575;DHT22;18182;1.328;103.810;2022-08-18T01:01:57;30.80;99.90
31575;DHT22;18182;1.328;103.810;2022-08-18T01:04:32;30.90;99.90
31575;DHT22;18182;1.328;103.810;2022-08-18T01:07:04;30.90;99.90
31575;DHT22;18182;1.328;103.810;2022-08-18T01:09:32;30.80;99.90
31575;DHT22;18182;1.328;103.810;2022-08-18T01:11:58;30.70;99.90
31575;DHT22;18182;1.328;103.810;2022-08-18T01:14:24;30.70;99.90
31575;DHT22;18182;1.328;103.810;2022-08-18T01:16:51;30.70;99.90
31575;DHT22;18182;1.328;103.810;2022-08-18T01:19:35;30.60;99.90
31575;DHT22;18182;1.328;103.810;2022-08-18T01:24:52;30.70;99.90
31575;DHT22;18182;1.328;103.810;2022-08-18T01:27:38;30.70;99.90
31575;DHT22;18182;1.328;103.810;2022-08-18T01:30:08;30.70;99.90
31575;DHT22;18182;1.328;103.810;2022-08-18T01:32:35;30.60;99.90
31575;DHT22;18182;1.328;103.810;2022-08-18T01:35:03;30.60;99.90
31575;DHT22;18182;1.328;103.810;2022-08-18T01:37:29;30.60;99.90
31575;DHT22;18182;1.328;103.810;2022-08-18T01:39:55;30.60;99.90
31575;DHT22;18182;1.328;103.810;2022-08-18T01:42:22;30.80;99.90
31575;DHT22;18182;1.328;103.810;2022-08-18T01:44:48;30.90;99.90
31575;DHT22;18182;1.328;103.810;2022-08-18T01:47:16;31.10;99.90
31575;DHT22;18182;1.328;103.810;2022-08-18T01:49:43;31.20;99.90
31575;DHT22;18182;1.328;103.810;2022-08-18T01:52:10;31.00;99.90
31575;DHT22;18182;1.328;103.810;2022-08-18T01:54:40;31.00;99.90
31575;DHT22;18182;1.328;103.810;2022-08-18T01:57:07;30.90;99.90
31575;DHT22;18182;1.328;103.810;2022-08-18T01:59:37;30.80;99.90
31575;DHT22;18182;1.328;103.810;2022-08-18T02:02:04;30.60;99.90
31575;DHT22;18182;1.328;103.810;2022-08-18T02:04:31;30.30;99.90
31575;DHT22;18182;1.328;103.810;2022-08-18T02:06:58;30.00;99.90
31575;DHT22;18182;1.328;103.810;2022-08-18T02:09:26;29.80;99.90
31575;DHT22;18182;1.328;103.810;2022-08-18T02:11:52;29.50;99.90
31575;DHT22;18182;1.328;103.810;2022-08-18T02:14:19;29.40;99.90
31575;DHT22;18182;1.328;103.810;2022-08-18T02:16:45;29.30;99.90
31575;DHT22;18182;1.328;103.810;2022-08-18T02:19:11;29.30;99.90
31575;DHT22;18182;1.328;103.810;2022-08-18T02:21:37;29.30;99.90
31575;DHT22;18182;1.328;103.810;2022-08-18T02:24:06;29.30;99.90
31575;DHT22;18182;1.328;103.810;2022-08-18T02:26:32;29.30;99.90
31575;DHT22;18182;1.328;103.810;2022-08-18T02:28:58;29.40;99.90
31575;DHT22;18182;1.328;103.810;2022-08-18T02:31:24;29.50;99.90
31575;DHT22;18182;1.328;103.810;2022-08-18T02:33:51;29.60;99.90
31575;DHT22;18182;1.328;103.810;2022-08-18T02:36:17;29.80;99.90
31575;DHT22;18182;1.328;103.810;2022-08-18T02:38:43;29.90;99.90
31575;DHT22;18182;1.328;103.810;2022-08-18T02:41:10;30.00;99.90
31575;DHT22;18182;1.328;103.810;2022-08-18T02:43:37;30.10;99.90
31575;DHT22;18182;1.328;103.810;2022-08-18T02:46:05;30.20;99.90
31575;DHT22;18182;1.328;103.810;2022-08-18T02:48:31;30.20;99.90
31575;DHT22;18182;1.328;103.810;2022-08-18T02:51:05;30.20;99.90
31575;DHT22;18182;1.328;103.810;2022-08-18T02:53:31;30.20;99.90
31575;DHT22;18182;1.328;103.810;2022-08-18T02:58:50;30.40;99.90
31575;DHT22;18182;1.328;103.810;2022-08-18T03:01:18;30.50;99.90
31575;DHT22;18182;1.328;103.810;2022-08-18T03:03:46;30.50;99.90
31575;DHT22;18182;1.328;103.810;2022-08-18T03:06:12;30.60;99.90
31575;DHT22;18182;1.328;103.810;2022-08-18T03:08:38;30.70;99.90
31575;DHT22;18182;1.328;103.810;2022-08-18T03:11:04;30.70;99.90
31575;DHT22;18182;1.328;103.810;2022-08-18T03:13:31;30.80;99.90
31575;DHT22;18182;1.328;103.810;2022-08-18T03:15:57;30.70;99.90
31575;DHT22;18182;1.328;103.810;2022-08-18T03:18:23;30.70;99.90
31575;DHT22;18182;1.328;103.810;2022-08-18T03:20:49;30.70;99.90
31575;DHT22;18182;1.328;103.810;2022-08-18T03:23:15;30.70;99.90
31575;DHT22;18182;1.328;103.810;2022-08-18T03:25:43;30.60;99.90
31575;DHT22;18182;1.328;103.810;2022-08-18T03:28:09;30.70;99.90
31575;DHT22;18182;1.328;103.810;2022-08-18T03:30:35;30.70;99.90
31575;DHT22;18182;1.328;103.810;2022-08-18T03:33:01;30.70;99.90
31575;DHT22;18182;1.328;103.810;2022-08-18T03:35:27;30.70;99.90
31575;DHT22;18182;1.328;103.810;2022-08-18T03:37:58;30.70;99.90
31575;DHT22;18182;1.328;103.810;2022-08-18T03:40:24;30.80;99.90
31575;DHT22;18182;1.328;103.810;2022-08-18T03:42:50;30.70;99.90
31575;DHT22;18182;1.328;103.810;2022-08-18T03:45:16;30.80;99.90
31575;DHT22;18182;1.328;103.810;2022-08-18T03:47:43;30.90;99.90
31575;DHT22;18182;1.328;103.810;2022-08-18T03:50:10;31.00;99.90
31575;DHT22;18182;1.328;103.810;2022-08-18T03:52:37;30.90;99.90
31575;DHT22;18182;1.328;103.810;2022-08-18T03:55:03;30.90;99.90
31575;DHT22;18182;1.328;103.810;2022-08-18T03:57:30;31.00;99.90
31575;DHT22;18182;1.328;103.810;2022-08-18T03:59:57;31.00;99.90
31575;DHT22;18182;1.328;103.810;2022-08-18T04:02:25;31.10;99.90
31575;DHT22;18182;1.328;103.810;2022-08-18T04:04:51;31.10;99.90
31575;DHT22;18182;1.328;103.810;2022-08-18T04:07:17;31.10;99.90
31575;DHT22;18182;1.328;103.810;2022-08-18T04:09:44;31.10;99.90
31575;DHT22;18182;1.328;103.810;2022-08-18T04:12:11;31.20;99.90
31575;DHT22;18182;1.328;103.810;2022-08-18T04:14:41;31.20;99.90
31575;DHT22;18182;1.328;103.810;2022-08-18T04:17:08;31.20;99.90
31575;DHT22;18182;1.328;103.810;2022-08-18T04:19:34;31.20;99.90
31575;DHT22;18182;1.328;103.810;2022-08-18T04:22:02;31.10;99.90
31575;DHT22;18182;1.328;103.810;2022-08-18T04:24:29;31.10;99.90
31575;DHT22;18182;1.328;103.810;2022-08-18T04:26:55;31.20;99.90
31575;DHT22;18182;1.328;103.810;2022-08-18T04:29:22;31.20;99.90
31575;DHT22;18182;1.328;103.810;2022-08-18T04:31:49;31.20;99.90
31575;DHT22;18182;1.328;103.810;2022-08-18T04:34:16;31.30;99.90
31575;DHT22;18182;1.328;103.810;2022-08-18T04:36:43;31.30;99.90
31575;DHT22;18182;1.328;103.810;2022-08-18T04:39:09;31.30;99.90
31575;DHT22;18182;1.328;103.810;2022-08-18T04:41:37;31.30;99.90
31575;DHT22;18182;1.328;103.810;2022-08-18T04:44:04;31.30;99.90
31575;DHT22;18182;1.328;103.810;2022-08-18T04:46:33;31.50;99.90
31575;DHT22;18182;1.328;103.810;2022-08-18T04:49:00;31.60;99.90
31575;DHT22;18182;1.328;103.810;2022-08-18T04:51:27;31.70;99.90
31575;DHT22;18182;1.328;103.810;2022-08-18T04:53:54;31.90;99.90
31575;DHT22;18182;1.328;103.810;2022-08-18T04:56:22;32.10;99.90
31575;DHT22;18182;1.328;103.810;2022-08-18T04:58:56;32.10;99.90
31575;DHT22;18182;1.328;103.810;2022-08-18T05:01:24;32.00;99.90
31575;DHT22;18182;1.328;103.810;2022-08-18T05:03:51;31.90;99.90
31575;DHT22;18182;1.328;103.810;2022-08-18T05:06:19;31.90;99.90
31575;DHT22;18182;1.328;103.810;2022-08-18T05:08:45;31.80;99.90
31575;DHT22;18182;1.328;103.810;2022-08-18T05:11:14;31.60;99.90
31575;DHT22;18182;1.328;103.810;2022-08-18T05:13:40;31.50;99.90
31575;DHT22;18182;1.328;103.810;2022-08-18T05:16:07;31.40;99.90
31575;DHT22;18182;1.328;103.810;2022-08-18T05:18:34;31.30;99.90
31575;DHT22;18182;1.328;103.810;2022-08-18T05:21:08;31.20;99.90
31575;DHT22;18182;1.328;103.810;2022-08-18T05:23:39;31.00;99.90
31575;DHT22;18182;1.328;103.810;2022-08-18T05:26:06;30.80;99.90
31575;DHT22;18182;1.328;103.810;2022-08-18T05:28:33;30.70;99.90
31575;DHT22;18182;1.328;103.810;2022-08-18T05:31:06;30.60;99.90
31575;DHT22;18182;1.328;103.810;2022-08-18T05:33:32;30.30;99.90
31575;DHT22;18182;1.328;103.810;2022-08-18T05:36:02;30.10;99.90
31575;DHT22;18182;1.328;103.810;2022-08-18T05:41:06;29.80;99.90
31575;DHT22;18182;1.328;103.810;2022-08-18T05:43:33;29.80;99.90
31575;DHT22;18182;1.328;103.810;2022-08-18T05:46:00;29.80;99.90
31575;DHT22;18182;1.328;103.810;2022-08-18T05:48:27;29.80;99.90
31575;DHT22;18182;1.328;103.810;2022-08-18T05:50:53;29.90;99.90
31575;DHT22;18182;1.328;103.810;2022-08-18T05:53:20;30.00;99.90
31575;DHT22;18182;1.328;103.810;2022-08-18T05:56:07;30.20;99.90
31575;DHT22;18182;1.328;103.810;2022-08-18T05:58:53;30.30;99.90
31575;DHT22;18182;1.328;103.810;2022-08-18T06:01:23;30.40;99.90
31575;DHT22;18182;1.328;103.810;2022-08-18T06:03:53;30.50;99.90
31575;DHT22;18182;1.328;103.810;2022-08-18T06:06:21;30.60;99.90
31575;DHT22;18182;1.328;103.810;2022-08-18T06:08:51;30.60;99.90
31575;DHT22;18182;1.328;103.810;2022-08-18T06:11:18;30.60;99.90
31575;DHT22;18182;1.328;103.810;2022-08-18T06:13:44;30.60;99.90
31575;DHT22;18182;1.328;103.810;2022-08-18T06:19:03;30.70;99.90
31575;DHT22;18182;1.328;103.810;2022-08-18T06:32:00;31.00;99.90
31575;DHT22;18182;1.328;103.810;2022-08-18T06:39:42;31.20;99.90
31575;DHT22;18182;1.328;103.810;2022-08-18T06:42:10;31.20;99.90
31575;DHT22;18182;1.328;103.810;2022-08-18T06:49:38;31.00;99.90
31575;DHT22;18182;1.328;103.810;2022-08-18T06:54:48;31.00;99.90
31575;DHT22;18182;1.328;103.810;2022-08-18T06:59:57;30.90;99.90
31575;DHT22;18182;1.328;103.810;2022-08-18T07:02:36;30.90;99.90
31575;DHT22;18182;1.328;103.810;2022-08-18T07:05:05;30.90;99.90
31575;DHT22;18182;1.328;103.810;2022-08-18T07:09:58;31.00;99.90
31575;DHT22;18182;1.328;103.810;2022-08-18T07:12:26;31.10;99.90
31575;DHT22;18182;1.328;103.810;2022-08-18T07:14:54;31.30;99.90
31575;DHT22;18182;1.328;103.810;2022-08-18T07:17:22;31.50;99.90
31575;DHT22;18182;1.328;103.810;2022-08-18T07:20:23;31.50;99.90
31575;DHT22;18182;1.328;103.810;2022-08-18T07:23:02;31.60;99.90
31575;DHT22;18182;1.328;103.810;2022-08-18T07:25:30;31.60;99.90
31575;DHT22;18182;1.328;103.810;2022-08-18T07:27:57;31.70;99.90
31575;DHT22;18182;1.328;103.810;2022-08-18T07:35:43;31.90;99.90
31575;DHT22;18182;1.328;103.810;2022-08-18T07:38:18;32.00;99.90
31575;DHT22;18182;1.328;103.810;2022-08-18T07:40:48;32.10;99.90
31575;DHT22;18182;1.328;103.810;2022-08-18T07:46:01;32.20;99.90
31575;DHT22;18182;1.328;103.810;2022-08-18T07:48:30;32.10;99.90
31575;DHT22;18182;1.328;103.810;2022-08-18T07:55:51;32.20;99.90
31575;DHT22;18182;1.328;103.810;2022-08-18T08:00:53;32.20;99.90
31575;DHT22;18182;1.328;103.810;2022-08-18T08:10:46;32.00;99.90
31575;DHT22;18182;1.328;103.810;2022-08-18T08:15:47;31.80;99.90
31575;DHT22;18182;1.328;103.810;2022-08-18T08:18:24;31.70;99.90
31575;DHT22;18182;1.328;103.810;2022-08-18T08:20:54;31.70;99.90
31575;DHT22;18182;1.328;103.810;2022-08-18T08:23:29;31.70;99.90
31575;DHT22;18182;1.328;103.810;2022-08-18T08:31:13;31.70;99.90
31575;DHT22;18182;1.328;103.810;2022-08-18T08:33:45;31.70;99.90
31575;DHT22;18182;1.328;103.810;2022-08-18T08:36:14;31.60;99.90
31575;DHT22;18182;1.328;103.810;2022-08-18T08:38:44;31.60;99.90
31575;DHT22;18182;1.328;103.810;2022-08-18T08:43:46;31.60;99.90
31575;DHT22;18182;1.328;103.810;2022-08-18T08:46:19;31.60;99.90
31575;DHT22;18182;1.328;103.810;2022-08-18T08:49:29;31.70;99.90
31575;DHT22;18182;1.328;103.810;2022-08-18T08:51:38;31.70;99.90
31575;DHT22;18182;1.328;103.810;2022-08-18T08:54:15;31.70;99.90
31575;DHT22;18182;1.328;103.810;2022-08-18T08:56:46;31.70;99.90
31575;DHT22;18182;1.328;103.810;2022-08-18T08:59:15;31.70;99.90
31575;DHT22;18182;1.328;103.810;2022-08-18T09:10:03;31.60;99.90
31575;DHT22;18182;1.328;103.810;2022-08-18T09:12:52;31.60;99.90
31575;DHT22;18182;1.328;103.810;2022-08-18T09:23:12;31.60;99.90
31575;DHT22;18182;1.328;103.810;2022-08-18T09:25:44;31.50;99.90
31575;DHT22;18182;1.328;103.810;2022-08-18T09:28:14;31.50;99.90
31575;DHT22;18182;1.328;103.810;2022-08-18T09:30:45;31.50;99.90
31575;DHT22;18182;1.328;103.810;2022-08-18T09:33:19;31.50;99.90
31575;DHT22;18182;1.328;103.810;2022-08-18T09:35:55;31.50;99.90
31575;DHT22;18182;1.328;103.810;2022-08-18T09:38:24;31.40;99.90
31575;DHT22;18182;1.328;103.810;2022-08-18T09:41:11;31.30;99.90
31575;DHT22;18182;1.328;103.810;2022-08-18T09:44:04;31.20;99.90
31575;DHT22;18182;1.328;103.810;2022-08-18T09:51:59;31.00;99.90
31575;DHT22;18182;1.328;103.810;2022-08-18T09:54:29;30.90;99.90
31575;DHT22;18182;1.328;103.810;2022-08-18T10:03:00;30.70;99.90
31575;DHT22;18182;1.328;103.810;2022-08-18T10:07:49;30.50;99.90
31575;DHT22;18182;1.328;103.810;2022-08-18T10:20:50;30.40;99.90
31575;DHT22;18182;1.328;103.810;2022-08-18T10:31:24;30.20;99.90
31575;DHT22;18182;1.328;103.810;2022-08-18T10:34:02;30.20;99.90
31575;DHT22;18182;1.328;103.810;2022-08-18T10:37:01;30.10;99.90
31575;DHT22;18182;1.328;103.810;2022-08-18T10:39:21;30.00;99.90
31575;DHT22;18182;1.328;103.810;2022-08-18T10:42:01;29.90;99.90
31575;DHT22;18182;1.328;103.810;2022-08-18T10:44:29;29.90;99.90
31575;DHT22;18182;1.328;103.810;2022-08-18T10:46:57;29.80;99.90
31575;DHT22;18182;1.328;103.810;2022-08-18T10:49:25;29.90;99.90
31575;DHT22;18182;1.328;103.810;2022-08-18T10:51:56;29.80;99.90
31575;DHT22;18182;1.328;103.810;2022-08-18T11:00:09;29.90;99.90
31575;DHT22;18182;1.328;103.810;2022-08-18T11:05:09;29.80;99.90
31575;DHT22;18182;1.328;103.810;2022-08-18T11:07:35;29.80;99.90
31575;DHT22;18182;1.328;103.810;2022-08-18T11:10:14;29.60;99.90
31575;DHT22;18182;1.328;103.810;2022-08-18T11:12:56;29.60;99.90
31575;DHT22;18182;1.328;103.810;2022-08-18T11:21:56;29.60;99.90
31575;DHT22;18182;1.328;103.810;2022-08-18T11:24:01;29.60;99.90
31575;DHT22;18182;1.328;103.810;2022-08-18T11:26:30;29.60;99.90
31575;DHT22;18182;1.328;103.810;2022-08-18T11:28:57;29.60;99.90
31575;DHT22;18182;1.328;103.810;2022-08-18T11:31:23;29.60;99.90
31575;DHT22;18182;1.328;103.810;2022-08-18T11:33:50;29.60;99.90
31575;DHT22;18182;1.328;103.810;2022-08-18T11:36:16;29.60;99.90
31575;DHT22;18182;1.328;103.810;2022-08-18T11:38:54;29.50;99.90
31575;DHT22;18182;1.328;103.810;2022-08-18T11:41:24;29.50;99.90
31575;DHT22;18182;1.328;103.810;2022-08-18T11:43:57;29.50;99.90
31575;DHT22;18182;1.328;103.810;2022-08-18T11:46:29;29.50;99.90
31575;DHT22;18182;1.328;103.810;2022-08-18T11:48:55;29.50;99.90
31575;DHT22;18182;1.328;103.810;2022-08-18T11:51:23;29.50;99.90
31575;DHT22;18182;1.328;103.810;2022-08-18T11:54:18;29.50;99.90
31575;DHT22;18182;1.328;103.810;2022-08-18T11:56:46;29.60;99.90
31575;DHT22;18182;1.328;103.810;2022-08-18T12:01:51;29.70;99.90
31575;DHT22;18182;1.328;103.810;2022-08-18T12:06:56;29.70;99.90
31575;DHT22;18182;1.328;103.810;2022-08-18T12:12:15;29.70;99.90
31575;DHT22;18182;1.328;103.810;2022-08-18T12:17:20;29.60;99.90
31575;DHT22;18182;1.328;103.810;2022-08-18T12:19:47;29.60;99.90
31575;DHT22;18182;1.328;103.810;2022-08-18T12:22:16;29.50;99.90
31575;DHT22;18182;1.328;103.810;2022-08-18T12:24:43;29.50;99.90
31575;DHT22;18182;1.328;103.810;2022-08-18T12:27:14;29.50;99.90
31575;DHT22;18182;1.328;103.810;2022-08-18T12:29:42;29.60;99.90
31575;DHT22;18182;1.328;103.810;2022-08-18T12:32:08;29.50;99.90
31575;DHT22;18182;1.328;103.810;2022-08-18T12:34:35;29.50;99.90
31575;DHT22;18182;1.328;103.810;2022-08-18T12:37:01;29.50;99.90
31575;DHT22;18182;1.328;103.810;2022-08-18T12:39:30;29.50;99.90
31575;DHT22;18182;1.328;103.810;2022-08-18T12:41:57;29.50;99.90
31575;DHT22;18182;1.328;103.810;2022-08-18T12:44:23;29.50;99.90
31575;DHT22;18182;1.328;103.810;2022-08-18T12:46:50;29.40;99.90
31575;DHT22;18182;1.328;103.810;2022-08-18T12:49:21;29.40;99.90
31575;DHT22;18182;1.328;103.810;2022-08-18T12:51:48;29.40;99.90
31575;DHT22;18182;1.328;103.810;2022-08-18T12:54:15;29.40;99.90
31575;DHT22;18182;1.328;103.810;2022-08-18T12:56:41;29.40;99.90
31575;DHT22;18182;1.328;103.810;2022-08-18T12:59:08;29.50;99.90
31575;DHT22;18182;1.328;103.810;2022-08-18T13:01:38;29.50;99.90
31575;DHT22;18182;1.328;103.810;2022-08-18T13:04:05;29.40;99.90
31575;DHT22;18182;1.328;103.810;2022-08-18T13:06:31;29.40;99.90
31575;DHT22;18182;1.328;103.810;2022-08-18T13:08:59;29.40;99.90
31575;DHT22;18182;1.328;103.810;2022-08-18T13:11:25;29.40;99.90
31575;DHT22;18182;1.328;103.810;2022-08-18T13:13:52;29.40;99.90
31575;DHT22;18182;1.328;103.810;2022-08-18T13:16:18;29.40;99.90
31575;DHT22;18182;1.328;103.810;2022-08-18T13:18:45;29.50;99.90
31575;DHT22;18182;1.328;103.810;2022-08-18T13:21:12;29.50;99.90
31575;DHT22;18182;1.328;103.810;2022-08-18T13:23:39;29.50;99.90
31575;DHT22;18182;1.328;103.810;2022-08-18T13:26:11;29.50;99.90
31575;DHT22;18182;1.328;103.810;2022-08-18T13:28:38;29.50;99.90
31575;DHT22;18182;1.328;103.810;2022-08-18T13:31:05;29.50;99.90
31575;DHT22;18182;1.328;103.810;2022-08-18T13:33:31;29.50;99.90
31575;DHT22;18182;1.328;103.810;2022-08-18T13:35:57;29.50;99.90
31575;DHT22;18182;1.328;103.810;2022-08-18T13:38:24;29.50;99.90
31575;DHT22;18182;1.328;103.810;2022-08-18T13:40:51;29.40;99.90
31575;DHT22;18182;1.328;103.810;2022-08-18T13:43:19;29.40;99.90
31575;DHT22;18182;1.328;103.810;2022-08-18T13:45:45;29.40;99.90
31575;DHT22;18182;1.328;103.810;2022-08-18T13:48:15;29.50;99.90
31575;DHT22;18182;1.328;103.810;2022-08-18T13:50:42;29.50;99.90
31575;DHT22;18182;1.328;103.810;2022-08-18T13:53:10;29.50;99.90
31575;DHT22;18182;1.328;103.810;2022-08-18T13:55:37;29.50;99.90
31575;DHT22;18182;1.328;103.810;2022-08-18T13:58:03;29.50;99.90
31575;DHT22;18182;1.328;103.810;2022-08-18T14:00:30;29.50;99.90
31575;DHT22;18182;1.328;103.810;2022-08-18T14:02:56;29.50;99.90
31575;DHT22;18182;1.328;103.810;2022-08-18T14:05:25;29.50;99.90
31575;DHT22;18182;1.328;103.810;2022-08-18T14:07:51;29.50;99.90
31575;DHT22;18182;1.328;103.810;2022-08-18T14:10:18;29.60;99.90
31575;DHT22;18182;1.328;103.810;2022-08-18T14:12:44;29.60;99.90
31575;DHT22;18182;1.328;103.810;2022-08-18T14:15:13;29.60;99.90
31575;DHT22;18182;1.328;103.810;2022-08-18T14:17:40;29.70;99.90
31575;DHT22;18182;1.328;103.810;2022-08-18T14:20:06;29.70;99.90
31575;DHT22;18182;1.328;103.810;2022-08-18T14:22:55;29.80;99.90
31575;DHT22;18182;1.328;103.810;2022-08-18T14:25:40;29.80;99.90
31575;DHT22;18182;1.328;103.810;2022-08-18T14:28:24;29.80;99.90
31575;DHT22;18182;1.328;103.810;2022-08-18T14:30:51;29.80;99.90
31575;DHT22;18182;1.328;103.810;2022-08-18T14:33:18;29.80;99.90
31575;DHT22;18182;1.328;103.810;2022-08-18T14:35:45;29.80;99.90
31575;DHT22;18182;1.328;103.810;2022-08-18T14:38:12;29.80;99.90
31575;DHT22;18182;1.328;103.810;2022-08-18T14:40:39;29.90;99.90
31575;DHT22;18182;1.328;103.810;2022-08-18T14:43:06;29.90;99.90
31575;DHT22;18182;1.328;103.810;2022-08-18T14:45:32;29.80;99.90
31575;DHT22;18182;1.328;103.810;2022-08-18T14:47:58;29.80;99.90
31575;DHT22;18182;1.328;103.810;2022-08-18T14:50:25;29.80;99.90
31575;DHT22;18182;1.328;103.810;2022-08-18T14:52:51;29.80;99.90
31575;DHT22;18182;1.328;103.810;2022-08-18T14:55:18;29.70;99.90
31575;DHT22;18182;1.328;103.810;2022-08-18T14:57:44;29.70;99.90
31575;DHT22;18182;1.328;103.810;2022-08-18T15:00:12;29.70;99.90
31575;DHT22;18182;1.328;103.810;2022-08-18T15:02:40;29.70;99.90
31575;DHT22;18182;1.328;103.810;2022-08-18T15:05:07;29.80;99.90
31575;DHT22;18182;1.328;103.810;2022-08-18T15:07:34;29.80;99.90
31575;DHT22;18182;1.328;103.810;2022-08-18T15:10:05;29.80;99.90
31575;DHT22;18182;1.328;103.810;2022-08-18T15:12:31;29.80;99.90
31575;DHT22;18182;1.328;103.810;2022-08-18T15:14:57;29.80;99.90
31575;DHT22;18182;1.328;103.810;2022-08-18T15:17:24;29.80;99.90
31575;DHT22;18182;1.328;103.810;2022-08-18T15:19:52;29.80;99.90
31575;DHT22;18182;1.328;103.810;2022-08-18T15:22:18;29.80;99.90
31575;DHT22;18182;1.328;103.810;2022-08-18T15:25:03;29.80;99.90
31575;DHT22;18182;1.328;103.810;2022-08-18T15:27:48;29.80;99.90
31575;DHT22;18182;1.328;103.810;2022-08-18T15:30:14;29.80;99.90
31575;DHT22;18182;1.328;103.810;2022-08-18T15:32:44;29.90;99.90
31575;DHT22;18182;1.328;103.810;2022-08-18T15:35:11;29.90;99.90
31575;DHT22;18182;1.328;103.810;2022-08-18T15:37:44;29.90;99.90
31575;DHT22;18182;1.328;103.810;2022-08-18T15:40:26;29.90;99.90
31575;DHT22;18182;1.328;103.810;2022-08-18T15:42:55;29.80;99.90
31575;DHT22;18182;1.328;103.810;2022-08-18T15:45:23;29.80;99.90
31575;DHT22;18182;1.328;103.810;2022-08-18T15:47:52;29.80;99.90
31575;DHT22;18182;1.328;103.810;2022-08-18T15:50:19;29.80;99.90
31575;DHT22;18182;1.328;103.810;2022-08-18T15:52:50;29.80;99.90
31575;DHT22;18182;1.328;103.810;2022-08-18T15:55:17;29.80;99.90
31575;DHT22;18182;1.328;103.810;2022-08-18T15:57:44;29.80;99.90
31575;DHT22;18182;1.328;103.810;2022-08-18T16:00:11;29.80;99.90
31575;DHT22;18182;1.328;103.810;2022-08-18T16:02:39;29.80;99.90
31575;DHT22;18182;1.328;103.810;2022-08-18T16:05:06;29.80;99.90
31575;DHT22;18182;1.328;103.810;2022-08-18T16:07:33;29.90;99.90
31575;DHT22;18182;1.328;103.810;2022-08-18T16:10:00;29.90;99.90
31575;DHT22;18182;1.328;103.810;2022-08-18T16:12:27;29.80;99.90
31575;DHT22;18182;1.328;103.810;2022-08-18T16:14:53;29.80;99.90
31575;DHT22;18182;1.328;103.810;2022-08-18T16:17:19;29.80;99.90
31575;DHT22;18182;1.328;103.810;2022-08-18T16:19:45;29.80;99.90
31575;DHT22;18182;1.328;103.810;2022-08-18T16:22:12;29.80;99.90
31575;DHT22;18182;1.328;103.810;2022-08-18T16:24:38;29.80;99.90
31575;DHT22;18182;1.328;103.810;2022-08-18T16:27:04;29.90;99.90
31575;DHT22;18182;1.328;103.810;2022-08-18T16:29:33;29.80;99.90
31575;DHT22;18182;1.328;103.810;2022-08-18T16:31:59;29.80;99.90
31575;DHT22;18182;1.328;103.810;2022-08-18T16:34:25;29.80;99.90
31575;DHT22;18182;1.328;103.810;2022-08-18T16:36:52;29.80;99.90
31575;DHT22;18182;1.328;103.810;2022-08-18T16:39:21;29.80;99.90
31575;DHT22;18182;1.328;103.810;2022-08-18T16:41:48;29.80;99.90
31575;DHT22;18182;1.328;103.810;2022-08-18T16:44:14;29.80;99.90
31575;DHT22;18182;1.328;103.810;2022-08-18T16:46:41;29.80;99.90
31575;DHT22;18182;1.328;103.810;2022-08-18T16:49:08;29.80;99.90
31575;DHT22;18182;1.328;103.810;2022-08-18T16:51:35;29.80;99.90
31575;DHT22;18182;1.328;103.810;2022-08-18T16:54:02;29.80;99.90
31575;DHT22;18182;1.328;103.810;2022-08-18T16:56:29;29.90;99.90
31575;DHT22;18182;1.328;103.810;2022-08-18T16:58:56;29.80;99.90
31575;DHT22;18182;1.328;103.810;2022-08-18T17:01:41;29.90;99.90
31575;DHT22;18182;1.328;103.810;2022-08-18T17:04:27;29.90;99.90
31575;DHT22;18182;1.328;103.810;2022-08-18T17:06:53;29.80;99.90
31575;DHT22;18182;1.328;103.810;2022-08-18T17:09:20;29.80;99.90
31575;DHT22;18182;1.328;103.810;2022-08-18T17:11:47;29.80;99.90
31575;DHT22;18182;1.328;103.810;2022-08-18T17:14:13;29.80;99.90
31575;DHT22;18182;1.328;103.810;2022-08-18T17:16:40;29.80;99.90
31575;DHT22;18182;1.328;103.810;2022-08-18T17:19:06;29.80;99.90
31575;DHT22;18182;1.328;103.810;2022-08-18T17:21:33;29.80;99.90
31575;DHT22;18182;1.328;103.810;2022-08-18T17:24:00;29.80;99.90
31575;DHT22;18182;1.328;103.810;2022-08-18T17:28:57;29.80;99.90
31575;DHT22;18182;1.328;103.810;2022-08-18T17:31:25;29.80;99.90
31575;DHT22;18182;1.328;103.810;2022-08-18T17:33:52;29.80;99.90
31575;DHT22;18182;1.328;103.810;2022-08-18T17:36:25;29.80;99.90
31575;DHT22;18182;1.328;103.810;2022-08-18T17:38:54;29.80;99.90
31575;DHT22;18182;1.328;103.810;2022-08-18T17:41:23;29.80;99.90
31575;DHT22;18182;1.328;103.810;2022-08-18T17:43:50;29.80;99.90
31575;DHT22;18182;1.328;103.810;2022-08-18T17:46:38;29.80;99.90
31575;DHT22;18182;1.328;103.810;2022-08-18T17:49:17;29.80;99.90
31575;DHT22;18182;1.328;103.810;2022-08-18T17:51:47;29.80;99.90
31575;DHT22;18182;1.328;103.810;2022-08-18T17:57:06;29.80;99.90
31575;DHT22;18182;1.328;103.810;2022-08-18T17:59:52;29.80;99.90
31575;DHT22;18182;1.328;103.810;2022-08-18T18:02:26;29.80;99.90
31575;DHT22;18182;1.328;103.810;2022-08-18T18:04:53;29.80;99.90